Wednesday, January 17, 2018, 10:01 PM GMT
Back to Local

CXKT, Kentville , N. S.

Location: , , Canada Lat: 45.067
Local Time: 10:01 PM GMT (22:01 GMT) Lon: -64.483
Time Zone: GMT Elev: 160 ft

Show me the last for .
Show Decoded

2018-01-17 21:00 METAR CXKT 172100Z AUTO 06003KT M03/M04 RMK AO1 6PAST HR SOG 14 8020 SLP234
                 P0002 T10331036 50026 =
2018-01-17 20:00 METAR CXKT 172000Z AUTO 06002KT M03/M04 RMK AO1 2PAST HR SOG 13 6025 SLP245
                 P0005 T10321036 50020 =
2018-01-17 19:00 METAR CXKT 171900Z AUTO 06003KT M03/M04 RMK AO1 8PAST HR SOG 11 6045 SLP247
                 P0003 T10341039 50008 =
2018-01-17 18:00 METAR CXKT 171800Z AUTO 04004KT M04/M04 RMK AO1 6PAST HR SOG 09 8050 SLP254
                 P0002 T10361042 50029 =
2018-01-17 17:00 METAR CXKT 171700Z AUTO 04003KT M03/M04 RMK AO1 2PAST HR PRESFR SOG 09 8041
                 SLP270 P0001 T10341042 50022 =
2018-01-17 16:00 METAR CXKT 171600Z AUTO 02002KT M04/M04 RMK AO1 2PAST HR SOG 09 8018 SLP292
                 P0001 T10361035 50020 =
2018-01-17 15:00 METAR CXKT 171500Z AUTO 07001KT M04/M05 RMK AO1 3PAST HR SOG 09 8010 SLP304
                 P0001 T10391048 50017 =
2018-01-17 14:00 METAR CXKT 171400Z AUTO 04002KT M05/M05 RMK AO1 7PAST HR SOG 08 5004 SLP311
                 P0003 T10471054 50015 =
2018-01-17 13:00 METAR CXKT 171300Z AUTO 00000KT M05/M06 RMK AO1 7PAST HR SOG 07 8002 SLP310
                 P0003 T10521057 50007 =
2018-01-17 12:00 METAR CXKT 171200Z AUTO 00000KT M05/M06 RMK AO1 5PAST HR SOG 06 0007 SLP314
                 P0002 T10451061 50008 =
2018-01-17 11:00 METAR CXKT 171100Z AUTO 00000KT M05/M06 RMK AO1 2PAST HR SOG 06 3006 SLP315
                 P0001 T10451064 50002 =
2018-01-17 10:00 METAR CXKT 171000Z AUTO 17002KT M06/M06 RMK AO1 SOG 06 3003 SLP312 T10561055 =
2018-01-17 09:00 METAR CXKT 170900Z AUTO 17001KT M06/M07 RMK AO1 SOG 06 8003 SLP307 T10581067 =
2018-01-17 08:00 METAR CXKT 170800Z AUTO 20003KT M06/M07 RMK AO1 SOG 06 1001 SLP309 T10601070 =
2018-01-17 07:00 METAR CXKT 170700Z AUTO 22003KT M06/M07 RMK AO1 SOG 06 6006 SLP309 T10631073 =
2018-01-17 06:00 METAR CXKT 170600Z AUTO 20003KT M07/M08 RMK AO1 SOG 06 5007 SLP310 T10661076 =
2018-01-17 05:00 METAR CXKT 170500Z AUTO 22003KT M07/M08 RMK AO1 SOG 06 8007 SLP308 T10691079 =
2018-01-17 04:00 METAR CXKT 170400Z AUTO 25003KT M07/M08 RMK AO1 SOG 06 0001 SLP315 T10701081 =
2018-01-17 03:00 METAR CXKT 170300Z AUTO 27005KT M06/M07 RMK AO1 SOG 06 1006 SLP317 T10601072 =
2018-01-17 02:00 METAR CXKT 170200Z AUTO 27004KT M05/M06 RMK AO1 SOG 06 1009 SLP315 T10521064 =
2018-01-17 01:00 METAR CXKT 170100Z AUTO 27005KT M04/M06 RMK AO1 SOG 06 3010 SLP314 T10431056 =
2018-01-17 00:00 METAR CXKT 170000Z AUTO 24005KT M04/M05 RMK AO1 SOG 06 3009 SLP311 T10391051 =
2018-01-16 23:00 METAR CXKT 162300Z AUTO 25005KT M04/M05 RMK AO1 SOG 06 1010 SLP306 T10351047 =

Support USWX by starting your Amazon purchase here.